createdAt,value
2022-08-10T00:04:15.553Z,407
2022-08-10T00:09:49.964Z,404
2022-08-10T00:15:09.776Z,405
2022-08-10T00:21:12.090Z,431
2022-08-10T00:27:46.867Z,452
2022-08-10T00:33:22.250Z,465
2022-08-10T00:38:40.976Z,444
2022-08-10T00:43:59.750Z,456
2022-08-10T00:49:17.947Z,417
2022-08-10T00:54:36.177Z,412
2022-08-10T00:59:58.296Z,419
2022-08-10T01:05:19.048Z,418
2022-08-10T01:10:37.556Z,412
2022-08-10T01:15:55.756Z,422
2022-08-10T01:21:14.038Z,412
2022-08-10T01:26:32.810Z,407
2022-08-10T01:31:58.667Z,415
2022-08-10T01:37:17.411Z,415
2022-08-10T01:42:35.843Z,419
2022-08-10T01:47:55.016Z,429
2022-08-10T01:53:13.532Z,421
2022-08-10T01:58:31.707Z,409
2022-08-10T02:04:01.705Z,409
2022-08-10T02:09:24.025Z,400
2022-08-10T02:14:42.529Z,402
2022-08-10T02:20:01.291Z,402
2022-08-10T02:25:39.635Z,399
2022-08-10T02:31:01.967Z,399
2022-08-10T02:36:23.639Z,403
2022-08-10T02:42:17.745Z,407
2022-08-10T02:50:49.478Z,411
2022-08-10T02:55:52.346Z,408
2022-08-10T03:01:10.637Z,410
2022-08-10T03:06:28.881Z,443
2022-08-10T03:12:16.438Z,464
2022-08-10T03:17:58.711Z,475
2022-08-10T03:23:17.406Z,487
2022-08-10T03:28:36.202Z,476
2022-08-10T03:33:54.950Z,455
2022-08-10T03:39:13.490Z,468
2022-08-10T03:44:32.003Z,442
2022-08-10T03:49:50.221Z,419
2022-08-10T03:55:08.563Z,417
2022-08-10T04:00:27.285Z,414
2022-08-10T04:05:45.490Z,413
2022-08-10T04:11:04.003Z,409
2022-08-10T04:16:22.728Z,408
2022-08-10T04:21:41.524Z,407
2022-08-10T04:27:00.256Z,412
2022-08-10T04:32:18.759Z,412
2022-08-10T04:37:37.533Z,417
2022-08-10T04:43:11.561Z,415
2022-08-10T04:48:36.551Z,426
2022-08-10T04:54:22.589Z,430
2022-08-10T04:59:47.310Z,416
2022-08-10T05:05:06.069Z,419
2022-08-10T05:10:24.578Z,442
2022-08-10T05:15:43.308Z,422
2022-08-10T05:21:01.837Z,412
2022-08-10T05:26:20.243Z,412
2022-08-10T05:31:38.962Z,415
2022-08-10T05:36:57.680Z,418
2022-08-10T05:42:16.166Z,418
2022-08-10T05:48:41.406Z,419
2022-08-10T05:54:19.683Z,423
2022-08-10T06:00:09.708Z,419
2022-08-10T06:06:08.137Z,417
2022-08-10T06:12:25.138Z,417
2022-08-10T06:17:58.962Z,418
2022-08-10T06:23:20.771Z,457
2022-08-10T06:28:39.233Z,428
2022-08-10T06:33:57.710Z,422
2022-08-10T06:39:32.747Z,426
2022-08-10T06:44:54.811Z,430
2022-08-10T06:50:13.557Z,424
2022-08-10T06:56:03.189Z,423
2022-08-10T07:01:21.742Z,429
2022-08-10T07:06:40.381Z,424
2022-08-10T07:12:07.374Z,428
2022-08-10T07:17:27.596Z,428
2022-08-10T07:23:01.000Z,422
2022-08-10T07:29:24.676Z,425
2022-08-10T07:35:12.830Z,429
2022-08-10T07:40:31.099Z,437
2022-08-10T07:45:49.904Z,440
2022-08-10T07:50:52.745Z,423
2022-08-10T07:56:26.237Z,423
2022-08-10T08:02:07.128Z,436
2022-08-10T08:07:25.743Z,424
2022-08-10T08:12:44.248Z,426
2022-08-10T08:18:03.237Z,430
2022-08-10T08:24:04.127Z,429
2022-08-10T08:29:52.451Z,421
2022-08-10T08:35:10.423Z,498
2022-08-10T08:40:28.871Z,476
2022-08-10T08:45:48.138Z,479
2022-08-10T08:52:06.039Z,493
2022-08-10T08:57:49.891Z,499
2022-08-10T09:03:09.052Z,506
2022-08-10T09:08:27.802Z,509
2022-08-10T09:13:46.283Z,517
2022-08-10T09:19:04.473Z,535
2022-08-10T09:24:22.992Z,553
2022-08-10T09:29:41.457Z,564
2022-08-10T09:36:17.750Z,596
2022-08-10T09:41:51.655Z,631
2022-08-10T09:47:10.054Z,632
2022-08-10T09:52:28.837Z,620
2022-08-10T09:57:47.317Z,606
2022-08-10T10:03:06.084Z,603
2022-08-10T10:08:24.463Z,630
2022-08-10T10:13:50.647Z,624
2022-08-10T10:19:30.073Z,617
2022-08-10T10:24:48.270Z,618
2022-08-10T10:30:06.742Z,615
2022-08-10T10:35:25.250Z,612
2022-08-10T10:40:43.409Z,605
2022-08-10T10:46:01.662Z,606
2022-08-10T10:51:19.860Z,622
2022-08-10T10:56:38.618Z,624
2022-08-10T11:01:57.066Z,618
2022-08-10T11:07:15.244Z,606
2022-08-10T11:12:50.887Z,601
2022-08-10T11:18:09.892Z,600
2022-08-10T11:23:35.090Z,600
2022-08-10T11:28:53.650Z,631
2022-08-10T11:34:47.977Z,637
2022-08-10T11:40:30.676Z,608
2022-08-10T11:45:51.620Z,590
2022-08-10T11:51:14.023Z,594
2022-08-10T11:56:32.874Z,584
2022-08-10T12:01:51.346Z,581
2022-08-10T12:08:10.296Z,578
2022-08-10T12:15:32.157Z,570
2022-08-10T12:20:50.620Z,568
2022-08-10T12:26:09.091Z,577
2022-08-10T12:31:27.303Z,577
2022-08-10T12:36:45.518Z,534
2022-08-10T12:42:03.981Z,508
2022-08-10T12:47:24.754Z,486
2022-08-10T12:52:43.502Z,489
2022-08-10T12:58:01.962Z,516
2022-08-10T13:04:20.171Z,560
2022-08-10T13:09:55.795Z,553
2022-08-10T13:15:28.304Z,527
2022-08-10T13:21:19.786Z,479
2022-08-10T13:26:49.663Z,500
2022-08-10T13:34:04.095Z,451
2022-08-10T13:40:03.324Z,427
2022-08-10T13:45:22.163Z,419
2022-08-10T13:50:40.637Z,409
2022-08-10T13:55:59.140Z,418
2022-08-10T14:01:17.942Z,479
2022-08-10T14:06:36.323Z,522
2022-08-10T14:11:54.520Z,492
2022-08-10T14:17:12.421Z,469
2022-08-10T14:22:35.595Z,448
2022-08-10T14:28:01.739Z,440
2022-08-10T14:33:22.235Z,434
2022-08-10T14:38:40.724Z,423
2022-08-10T14:43:59.462Z,416
2022-08-10T14:49:25.225Z,418
2022-08-10T14:54:46.583Z,423
2022-08-10T15:00:23.920Z,422
2022-08-10T15:05:59.553Z,411
2022-08-10T15:12:11.617Z,414
2022-08-10T15:17:44.280Z,427
2022-08-10T15:23:03.038Z,428
2022-08-10T15:28:21.528Z,432
2022-08-10T15:34:43.118Z,426
2022-08-10T15:40:22.724Z,422
2022-08-10T15:46:11.884Z,419
2022-08-10T15:51:52.724Z,413
2022-08-10T15:57:12.713Z,427
2022-08-10T16:02:31.264Z,436
2022-08-10T16:07:49.710Z,429
2022-08-10T16:13:50.005Z,430
2022-08-10T16:19:24.404Z,431
2022-08-10T16:24:43.935Z,433
2022-08-10T16:30:02.149Z,431
2022-08-10T16:35:20.383Z,433
2022-08-10T16:40:38.619Z,440
2022-08-10T16:45:57.257Z,446
2022-08-10T16:51:17.649Z,457
2022-08-10T16:56:38.192Z,450
2022-08-10T17:02:07.764Z,445
2022-08-10T17:07:30.525Z,442
2022-08-10T17:12:49.158Z,435
2022-08-10T17:17:52.044Z,422
2022-08-10T17:23:10.513Z,421
2022-08-10T17:28:33.409Z,414
2022-08-10T17:33:54.706Z,424
2022-08-10T17:39:13.283Z,427
2022-08-10T17:44:16.020Z,415
2022-08-10T17:49:34.242Z,451
2022-08-10T17:54:52.726Z,456
2022-08-10T18:00:11.186Z,457
2022-08-10T18:05:29.652Z,453
2022-08-10T18:10:48.109Z,465
2022-08-10T18:16:06.040Z,466
2022-08-10T18:21:24.504Z,464
2022-08-10T18:26:48.635Z,465
2022-08-10T18:32:07.169Z,496
2022-08-10T18:37:25.620Z,477
2022-08-10T18:42:44.119Z,464
2022-08-10T18:48:02.300Z,461
2022-08-10T18:53:20.781Z,462
2022-08-10T18:58:39.040Z,443
2022-08-10T19:03:57.737Z,451
2022-08-10T19:09:41.433Z,443
2022-08-10T19:15:07.073Z,453
2022-08-10T19:20:25.665Z,555
2022-08-10T19:26:16.771Z,453
2022-08-10T19:32:03.942Z,433
2022-08-10T19:37:22.164Z,440
2022-08-10T19:42:59.269Z,453
2022-08-10T19:48:26.487Z,431
2022-08-10T19:53:44.703Z,429
2022-08-10T19:59:03.112Z,428
2022-08-10T20:04:21.862Z,427
2022-08-10T20:09:50.418Z,456
2022-08-10T20:15:18.299Z,447
2022-08-10T20:20:36.475Z,449
2022-08-10T20:25:54.701Z,454
2022-08-10T20:31:17.480Z,455
2022-08-10T20:36:36.095Z,444
2022-08-10T20:41:54.821Z,435
2022-08-10T20:47:13.301Z,431
2022-08-10T20:52:31.511Z,423
2022-08-10T20:57:53.690Z,427
2022-08-10T21:03:16.041Z,429
2022-08-10T21:08:50.605Z,423
2022-08-10T21:14:09.427Z,419
2022-08-10T21:19:29.935Z,420
2022-08-10T21:24:52.150Z,417
2022-08-10T21:30:10.588Z,423
2022-08-10T21:35:36.411Z,423
2022-08-10T21:41:17.237Z,421
2022-08-10T21:46:37.510Z,426
2022-08-10T21:52:12.152Z,425
2022-08-10T21:57:38.271Z,421
2022-08-10T22:03:02.339Z,424
2022-08-10T22:08:24.004Z,426
2022-08-10T22:13:44.485Z,427
2022-08-10T22:19:12.553Z,424
2022-08-10T22:24:33.516Z,427
2022-08-10T22:29:51.719Z,431
2022-08-10T22:35:11.751Z,436
2022-08-10T22:40:29.988Z,440
2022-08-10T22:45:48.627Z,443
2022-08-10T22:51:07.114Z,441
2022-08-10T22:56:25.602Z,443
2022-08-10T23:02:08.275Z,438
2022-08-10T23:07:27.194Z,434
2022-08-10T23:12:45.992Z,429
2022-08-10T23:18:04.454Z,426
2022-08-10T23:23:23.801Z,424
2022-08-10T23:28:58.800Z,424
2022-08-10T23:34:30.702Z,446
2022-08-10T23:39:49.195Z,434
2022-08-10T23:45:07.443Z,437
2022-08-10T23:50:25.645Z,560
2022-08-10T23:55:49.053Z,507
